Tiempo atmosférico en la estación meteorológica de Chipiona, Cádiz (10 m.)



Fecha
DESCASC
Temp. máxima en grados centígrados (hora)
DESCASC
Temp. mínima en grados centígrados (hora)
DESCASC
Temp. media en grados centígrados
DESCASC
Racha de viento máxima en m/sg (hora)
DESCASC
Velocidad máxima media en intervalos de 10 minutos(hora)
DESCASC
Precipitaciones diarias en mm
DESCASC
Precipitaciones de 00:00 a 06:00 en mm
DESCASC
Precipitaciones de 06:00 a 12:00 en mm
DESCASC
Precipitaciones de 12:00 a 18:00 en mm
DESCASC
Precipitaciones de 18:00 a 24:00 en mm
DESCASC
18-01-2018 18.2 (15:30) 6.3 (08:30) 12.3 5.28 (00:50) 3.06 (10:50) 0 0 0 0 0
17-01-2018 17.1 (17:00) 8.2 (07:20) 12.7 10 (15:50) 4.44 (16:10) 0 0 0 0 0
16-01-2018 15.9 (16:00) 4.9 (01:20) 10.4 6.39 (13:40) 3.89 (15:30) 0 0 0 0 0
15-01-2018 13.7 (16:40) 4.5 (06:40) 9.1 10 (13:50) 5.56 (14:20) 0 0 0 0 0
14-01-2018 13.2 (16:20) 6.1 (00:00) 9.6 7.5 (17:50) 5 (19:00) 0.6 0.4 0.2 0 0
13-01-2018 14.6 (15:00) 5.9 (00:00) 10.3 9.17 (13:00) 5.56 (15:50) 5.6 0 0 5.4 0.2
12-01-2018 13.2 (16:40) 5.4 (00:00) 9.3 5.83 (00:50) 3.61 (00:50) 0 0 0 0 0
11-01-2018 15.2 (15:20) 6.9 (00:00) 11 8.89 (12:40) 5 (12:40) 0 0 0 0 0
10-01-2018 17 (13:00) 10.4 (00:00) 13.7 10.28 (18:40) 6.67 (19:00) 1 0.2 0 0 0.8
09-01-2018 14.8 (21:20) 3.6 (00:00) 9.2 14.44 (17:00) 8.06 (19:50) 13.6 0 0 9.2 4.4
08-01-2018 11.1 (16:50) 5 (00:00) 8.1 10.56 (13:20) 5.83 (06:10) 0.4 0.2 0.2 0 0
07-01-2018 11.1 (16:20) 5.3 (00:00) 8.2 10.56 (01:50) 6.39 (01:50) 0 0 0 0 0
06-01-2018 14.2 (00:30) 8.5 (00:00) 11.3 18.61 (00:40) 7.78 (00:50) 12.8 12.8 0 0 0
05-01-2018 17.7 (14:20) 13.5 (00:00) 15.6 12.78 (20:20) 7.5 (20:20) 0.2 0 0 0 0.2
04-01-2018 15.5 (12:30) 11 (08:40) 13.3 5 (19:30) 3.06 (19:20) 0 0 0 0 0
03-01-2018 18.2 (15:50) 9.5 (00:00) 13.9 9.17 (14:30) 4.17 (13:20) 0 0 0 0 0
02-01-2018 16.7 (15:50) 5.9 (00:00) 11.3 5.56 (15:00) 3.06 (16:40) 0 0 0 0 0
01-01-2018 16.8 (16:20) 7.5 (00:00) 12.1 6.11 (00:50) 3.61 (00:50) 0 0 0 0 0
31-12-2017 17.6 (16:00) 10.7 (00:00) 14.2 8.06 (20:40) 5 (20:40) 0 0 0 0 0
30-12-2017 20.2 (15:40) 11.3 (00:00) 15.8 6.39 (13:20) 3.33 (13:20) 0 0 0 0 0
29-12-2017 17.6 (16:20) 15.3 (00:00) 16.5 6.67 (03:10) 4.17 (03:10) 0 0 0 0 0
28-12-2017 17.6 (12:50) 14.6 (00:00) 16.1 8.89 (14:00) 5.56 (05:00) 0 0 0 0 0
27-12-2017 16.6 (08:00) 14.5 (00:00) 15.6 17.22 (05:50) 10.83 (06:00) 2.4 0.6 1.8 0 0
26-12-2017 15.2 (06:10) 11.9 (00:00) 13.5 12.78 (03:10) 7.22 (03:20) 2.4 1.6 0.8 0 0
25-12-2017 17.7 (15:30) 9.2 (00:00) 13.5 11.11 (16:50) 5.28 (12:40) 32.2 0 28.6 1.2 2.4
24-12-2017 18 (16:30) 6.6 (00:00) 12.3 6.94 (21:10) 3.89 (21:10) 0 0 0 0 0
23-12-2017 17 (16:20) 5.1 (00:00) 11 7.78 (15:20) 5 (16:00) 0 0 0 0 0
22-12-2017 15.8 (17:00) 4.4 (00:00) 10.1 3.33 (13:40) 2.5 (00:50) 0 0 0 0 0

Gráficas

Temp. máximas Temp. mínimas Temp. medias Precipitaciones Rachas de viento máximas Velocidades máximas media en intervalos de 10 minutos

Datos horarios

Fecha y hora oficial Temperatura (ºC) Velocidad del viento (km/h) Dirección del viento Racha (km/h) Dirección de racha Precipitación (mm) Presión (hPa) Tendencia (hPa) Humedad (%)
2018-01-20 23:00:00 8.2 2 Sudeste 5 Sudeste 0 -- -- 100
2018-01-20 22:00:00 9.5 3 Sudeste 5 Sur 0 -- -- 100
2018-01-20 21:00:00 10.4 3 Sur 11 Sudoeste 0 -- -- 99
2018-01-20 20:00:00 10.8 8 Sur 12 Sudoeste 0 -- -- 99
2018-01-20 19:00:00 11.4 5 Sur 12 Sudoeste 0 -- -- 95
2018-01-20 18:00:00 14.3 6 Sudoeste 12 Sudoeste 0 -- -- 88
2018-01-20 17:00:00 14.5 8 Oeste 11 Sudoeste 0 -- -- 85
2018-01-20 16:00:00 15.2 7 Oeste 10 Oeste 0 -- -- 83
2018-01-20 15:00:00 14.5 4 Noroeste 9 Noroeste 0 -- -- 86
2018-01-20 14:00:00 13.3 5 Noroeste 10 Norte 0 -- -- 94
2018-01-20 13:00:00 12.2 4 Noroeste 9 Noroeste 0 -- -- 100
2018-01-20 12:00:00 11.5 3 Este 11 Nordeste 0 -- -- 100
2018-01-20 11:00:00 9.6 6 Nordeste 12 Este 0 -- -- 100
2018-01-20 10:00:00 7.8 6 Nordeste 11 Este 0 -- -- 100
2018-01-20 09:00:00 7.1 5 Nordeste 11 Noroeste 0 -- -- 100
2018-01-20 08:00:00 6.3 3 Norte 6 Norte 0 -- -- 100
2018-01-20 07:00:00 5.7 3 Este 5 Este 0 -- -- 100
2018-01-20 06:00:00 6.6 0 Calma 8 Nordeste 0 -- -- 100
2018-01-20 05:00:00 7.3 3 Este 8 Sudeste 0 -- -- 99
2018-01-20 04:00:00 7.9 3 Este 8 Este 0 -- -- 99
2018-01-20 03:00:00 8.6 6 Este 9 Este 0 -- -- 99
2018-01-20 02:00:00 8.1 4 Este 5 Este 0 -- -- 98
2018-01-20 01:00:00 8.2 4 Este 6 Sudeste 0 -- -- 97
2018-01-20 00:00:00 8.2 5 Sudeste 6 Sudeste 0 -- -- 96
2018-01-19 23:00:00 8.6 3 Sur 6 Sur 0 -- -- 95
2018-01-19 22:00:00 9.1 4 Sudeste 4 Sudeste 0 -- -- 93
2018-01-19 21:00:00 10 3 Sur 5 Sudoeste 0 -- -- 92
2018-01-19 20:00:00 11.5 3 Sudoeste 5 Sur 0 -- -- 87
2018-01-19 19:00:00 13.5 3 Sudoeste 10 Sudoeste 0 -- -- 83
2018-01-19 18:00:00 15.5 6 Sudoeste 13 Sudoeste 0 -- -- 77
2018-01-19 17:00:00 17.3 3 Oeste 8 Oeste 0 -- -- 62
2018-01-19 16:00:00 16.9 5 Oeste 9 Oeste 0 -- -- 71
2018-01-19 15:00:00 16.5 5 Norte 10 Oeste 0 -- -- 64
2018-01-19 14:00:00 15.2 8 Oeste 12 Oeste 0 -- -- 77
2018-01-19 13:00:00 14.4 4 Oeste 8 Sudoeste 0 -- -- 80
2018-01-19 12:00:00 12.8 3 Norte 10 Noroeste 0 -- -- 83
2018-01-19 11:00:00 11.3 3 Este 7 Nordeste 0 -- -- 89
2018-01-19 10:00:00 8.7 4 Norte 9 Norte 0 -- -- 99
2018-01-19 09:00:00 7 3 Este 6 Nordeste 0 -- -- 96
2018-01-19 08:00:00 7.7 3 Norte 8 Norte 0 -- -- 96
2018-01-19 07:00:00 7.9 3 Norte 6 Nordeste 0 -- -- 95
2018-01-19 06:00:00 8.3 2 Nordeste 8 Norte 0 -- -- 94
2018-01-19 05:00:00 9.4 5 Norte 10 Noroeste 0 -- -- 95
2018-01-19 04:00:00 8.3 2 Nordeste 9 Norte 0 -- -- 95
2018-01-19 03:00:00 8.4 3 Sudeste 5 Este 0 -- -- 94
2018-01-19 02:00:00 8.6 3 Sudeste 6 Nordeste 0 -- -- 93
2018-01-19 01:00:00 9.1 2 Nordeste 5 Este 0 -- -- 93
2018-01-19 00:00:00 9.7 2 Nordeste 5 Noroeste 0 -- -- 93
2018-01-18 23:00:00 10.6 0 Calma 7 Oeste 0 -- -- 90
2018-01-18 22:00:00 10.8 2 Sudeste 5 Nordeste 0 -- -- 90
2018-01-18 21:00:00 11.7 0 Calma 4 Norte 0 -- -- 88
2018-01-18 20:00:00 13 0 Calma 5 Oeste 0 -- -- 83
2018-01-18 19:00:00 15 5 Oeste 8 Oeste 0 -- -- 75
2018-01-18 18:00:00 17.3 0 Calma 8 Noroeste 0 -- -- 63
2018-01-18 17:00:00 17.6 4 Noroeste 12 Oeste 0 -- -- 58
2018-01-18 16:00:00 17.6 8 Oeste 13 Oeste 0 -- -- 66
2018-01-18 15:00:00 17.9 5 Noroeste 14 Norte 0 -- -- 62
2018-01-18 14:00:00 16.2 7 Norte 15 Nordeste 0 -- -- 64
2018-01-18 13:00:00 14.7 7 Norte 16 Norte 0 -- -- 69
2018-01-18 12:00:00 12.5 7 Norte 15 Norte 0 -- -- 75
2018-01-18 11:00:00 10.8 10 Nordeste 18 Nordeste 0 -- -- 76
2018-01-18 10:00:00 8.9 8 Nordeste 15 Nordeste 0 -- -- 84
2018-01-18 09:00:00 6.5 6 Nordeste 11 Nordeste 0 -- -- 90
2018-01-18 08:00:00 6.5 3 Norte 10 Nordeste 0 -- -- 89
2018-01-18 07:00:00 7.4 6 Nordeste 17 Norte 0 -- -- 86
2018-01-18 06:00:00 8.1 6 Nordeste 15 Nordeste 0 -- -- 87
2018-01-18 05:00:00 8.1 6 Nordeste 13 Nordeste 0 -- -- 89
2018-01-18 04:00:00 7.6 5 Norte 9 Norte 0 -- -- 93
2018-01-18 03:00:00 8.2 3 Nordeste 8 Norte 0 -- -- 91
2018-01-18 02:00:00 9.3 5 Nordeste 15 Nordeste 0 -- -- 88
2018-01-18 01:00:00 10.8 9 Nordeste 19 Nordeste 0 -- -- 86
2018-01-18 00:00:00 11.4 6 Nordeste 19 Nordeste 0 -- -- 85
2018-01-17 23:00:00 12.4 12 Nordeste 22 Nordeste 0 -- -- 84
2018-01-17 22:00:00 12 5 Nordeste 13 Norte 0 -- -- 87
2018-01-17 21:00:00 12.7 4 Norte 16 Nordeste 0 -- -- 84
2018-01-17 20:00:00 13.9 9 Nordeste 19 Nordeste 0 -- -- 78
2018-01-17 19:00:00 15 11 Nordeste 25 Nordeste 0 -- -- 73
2018-01-17 18:00:00 16.6 14 Nordeste 30 Norte 0 -- -- 67
2018-01-17 17:00:00 17.1 11 Norte 28 Norte 0 -- -- 69
2018-01-17 16:00:00 16.9 14 Norte 36 Norte 0 -- -- 69
2018-01-17 15:00:00 16.3 13 Norte 33 Norte 0 -- -- 72
2018-01-17 14:00:00 15.5 13 Norte 30 Nordeste 0 -- -- 73
2018-01-17 13:00:00 14.6 12 Norte 28 Norte 0 -- -- 79
2018-01-17 12:00:00 13.3 10 Norte 21 Norte 0 -- -- 84
2018-01-17 11:00:00 11.6 6 Norte 16 Norte 0 -- -- 91
2018-01-17 10:00:00 9.8 7 Norte 17 Nordeste 0 -- -- 96
2018-01-17 09:00:00 8.6 6 Norte 20 Norte 0 -- -- 98
2018-01-17 08:00:00 8.3 6 Norte 15 Nordeste 0 -- -- 98
2018-01-17 07:00:00 8.3 8 Nordeste 20 Norte 0 -- -- 98
2018-01-17 06:00:00 8.5 8 Norte 23 Norte 0 -- -- 98
2018-01-17 05:00:00 8.5 10 Norte 21 Norte 0 -- -- 97
2018-01-17 04:00:00 8.7 9 Norte 15 Norte 0 -- -- 95
2018-01-17 03:00:00 8.9 4 Norte 10 Norte 0 -- -- 93
2018-01-17 02:00:00 9.2 4 Norte 13 Norte 0 -- -- 93
2018-01-17 01:00:00 9.7 4 Norte 10 Norte 0 -- -- 92
2018-01-17 00:00:00 10.1 2 Norte 8 Noroeste 0 -- -- 95
2018-01-16 23:00:00 9.8 3 Noroeste 6 Noroeste 0 -- -- 92
2018-01-16 22:00:00 10.2 5 Noroeste 6 Oeste 0 -- -- 93
2018-01-16 21:00:00 10.9 3 Noroeste 6 Norte 0 -- -- 89
2018-01-16 20:00:00 10.9 0 Calma 5 Norte 0 -- -- 82
2018-01-16 19:00:00 13.3 3 Nordeste 12 Nordeste 0 -- -- 73
2018-01-16 18:00:00 15.1 8 Nordeste 18 Nordeste 0 -- -- 65
2018-01-16 17:00:00 15.7 8 Nordeste 19 Nordeste 0 -- -- 61
2018-01-16 16:00:00 15.9 10 Nordeste 23 Nordeste 0 -- -- 61
2018-01-16 15:00:00 14.9 8 Nordeste 18 Norte 0 -- -- 66
2018-01-16 14:00:00 14.4 11 Nordeste 23 Nordeste 0 -- -- 66
2018-01-16 13:00:00 12.4 10 Norte 19 Norte 0 -- -- 76
2018-01-16 12:00:00 10.6 9 Nordeste 23 Norte 0 -- -- 83
2018-01-16 11:00:00 8.7 9 Nordeste 20 Norte 0 -- -- 83
2018-01-16 10:00:00 6.6 6 Nordeste 13 Nordeste 0 -- -- 92
2018-01-16 09:00:00 5.1 9 Nordeste 18 Nordeste 0 -- -- 94
2018-01-16 08:00:00 5.1 5 Nordeste 13 Nordeste 0 -- -- 94
2018-01-16 07:00:00 5.6 6 Nordeste 12 Nordeste 0 -- -- 94
2018-01-16 06:00:00 5.8 6 Nordeste 13 Nordeste 0 -- -- 95
2018-01-16 05:00:00 6.1 4 Norte 10 Norte 0 -- -- 95
2018-01-16 04:00:00 5.6 6 Nordeste 10 Nordeste 0 -- -- 95
2018-01-16 03:00:00 5.3 5 Nordeste 9 Nordeste 0 -- -- 96
2018-01-16 02:00:00 5.8 4 Nordeste 9 Norte 0 -- -- 95
2018-01-16 01:00:00 5.1 4 Sudeste 8 Nordeste 0 -- -- 93
2018-01-16 00:00:00 5.3 0 Calma 5 Nordeste 0 -- -- 92
2018-01-15 23:00:00 6.6 3 Nordeste 10 Sudeste 0 -- -- 90
2018-01-15 22:00:00 7.3 4 Sudeste 10 Nordeste 0 -- -- 86
2018-01-15 21:00:00 8.8 6 Nordeste 12 Nordeste 0 -- -- 83
2018-01-15 20:00:00 10.2 7 Nordeste 15 Nordeste 0 -- -- 80
2018-01-15 19:00:00 11.2 10 Nordeste 21 Nordeste 0 -- -- 76
2018-01-15 18:00:00 12.8 10 Nordeste 30 Nordeste 0 -- -- 69
2018-01-15 17:00:00 13.4 14 Nordeste 31 Nordeste 0 -- -- 67
2018-01-15 16:00:00 13.3 15 Norte 33 Nordeste 0 -- -- 65
2018-01-15 15:00:00 12.4 18 Nordeste 35 Nordeste 0 -- -- 70
2018-01-15 14:00:00 11.7 18 Nordeste 36 Nordeste 0 -- -- 70
2018-01-15 13:00:00 10.6 13 Norte 30 Nordeste 0 -- -- 74
2018-01-15 12:00:00 9.7 12 Norte 26 Nordeste 0 -- -- 76
2018-01-15 11:00:00 7.6 10 Norte 22 Nordeste 0 -- -- 86
2018-01-15 10:00:00 6.1 12 Nordeste 23 Nordeste 0 -- -- 93
2018-01-15 09:00:00 5.1 6 Nordeste 20 Nordeste 0 -- -- 96
2018-01-15 08:00:00 4.7 7 Norte 17 Norte 0 -- -- 96
2018-01-15 07:00:00 4.7 3 Norte 11 Norte 0 -- -- 96
2018-01-15 06:00:00 4.7 3 Norte 10 Norte 0 -- -- 95
2018-01-15 05:00:00 4.9 3 Norte 7 Norte 0 -- -- 94
2018-01-15 04:00:00 5.4 3 Norte 7 Nordeste 0 -- -- 92
2018-01-15 03:00:00 6.1 4 Norte 9 Nordeste 0 -- -- 89
2018-01-15 02:00:00 6.8 3 Norte 14 Nordeste 0 -- -- 88
2018-01-15 01:00:00 7.5 4 Norte 17 Norte 0 -- -- 86
2018-01-15 00:00:00 7.9 5 Nordeste 14 Nordeste 0 -- -- 82
2018-01-14 23:00:00 9.8 6 Norte 15 Norte 0 -- -- 76
2018-01-14 22:00:00 10.6 6 Norte 23 Noroeste 0 -- -- 74
2018-01-14 21:00:00 11.7 10 Noroeste 27 Noroeste 0 -- -- 67
2018-01-14 20:00:00 12 13 Noroeste 26 Noroeste 0 -- -- 68
2018-01-14 19:00:00 12.1 18 Oeste 27 Oeste 0 -- -- 67
2018-01-14 18:00:00 12.7 16 Oeste 27 Oeste 0 -- -- 67
2018-01-14 17:00:00 13 17 Oeste 26 Oeste 0 -- -- 68
2018-01-14 16:00:00 13.1 16 Oeste 26 Oeste 0 -- -- 73
2018-01-14 15:00:00 12.6 13 Oeste 23 Oeste 0 -- -- 78
2018-01-14 14:00:00 11.9 11 Noroeste 18 Oeste 0 -- -- 82
2018-01-14 13:00:00 11 6 Noroeste 11 Oeste 0 -- -- 88
2018-01-14 12:00:00 10.4 2 Este 4 Norte 0 -- -- 100
2018-01-14 11:00:00 9.5 0 Calma 3 Norte 0 -- -- 100
2018-01-14 10:00:00 8.7 0 Calma 6 Este 0 -- -- 100
2018-01-14 09:00:00 8.6 2 Nordeste 6 Este 0.2 -- -- 99
2018-01-14 08:00:00 8.8 4 Nordeste 12 Norte 0 -- -- 99
2018-01-14 07:00:00 8.4 0 Calma 9 Sur 0 -- -- 100
2018-01-14 06:00:00 7.1 3 Sudeste 6 Sudeste 0 -- -- 99
2018-01-14 05:00:00 8 2 Sudeste 8 Sudoeste 0 -- -- 99
2018-01-14 04:00:00 6.8 3 Sur 5 Sudoeste 0.4 -- -- 99
2018-01-14 03:00:00 6.2 2 Sudeste 3 Sudeste 0 -- -- 98
2018-01-14 02:00:00 6.4 0 Calma 3 Este 0 -- -- 97
2018-01-14 01:00:00 6.8 0 Calma 3 Sur 0 -- -- 97
2018-01-14 00:00:00 7.5 0 Calma 4 Oeste 0.2 -- -- 96
2018-01-13 23:00:00 8.2 2 Sudoeste 7 Sudoeste 0 -- -- 96
2018-01-13 22:00:00 9.3 3 Sur 6 Sur 0 -- -- 95
2018-01-13 21:00:00 10.8 4 Sur 7 Sur 0 -- -- 96
2018-01-13 20:00:00 10.1 3 Sudeste 5 Sur 0 -- -- 93
2018-01-13 19:00:00 11.4 5 Sur 7 Sur 0 -- -- 90
2018-01-13 18:00:00 13.5 3 Sudoeste 15 Noroeste 0 -- -- 84
2018-01-13 17:00:00 13.6 11 Noroeste 30 Oeste 0 -- -- 84
2018-01-13 16:00:00 13.7 19 Oeste 31 Oeste 0 -- -- 85
2018-01-13 15:00:00 14.6 15 Oeste 28 Oeste 0 -- -- 91
2018-01-13 14:00:00 14 11 Sudoeste 31 Sudoeste 2.2 -- -- 93
2018-01-13 13:00:00 13 17 Sur 33 Sur 3.2 -- -- 98
2018-01-13 12:00:00 11.2 8 Sudeste 18 Sudeste 0 -- -- 93
2018-01-13 11:00:00 9.4 9 Sudeste 16 Este 0 -- -- 94
2018-01-13 10:00:00 8.3 7 Sudeste 13 Sudeste 0 -- -- 95
2018-01-13 09:00:00 7.2 8 Este 13 Este 0 -- -- 97
2018-01-13 08:00:00 6.4 4 Este 8 Este 0 -- -- 98
2018-01-13 07:00:00 6.1 5 Este 9 Este 0 -- -- 98
2018-01-13 06:00:00 6.4 4 Este 6 Este 0 -- -- 98
2018-01-13 05:00:00 6.4 4 Este 6 Este 0 -- -- 98
2018-01-13 04:00:00 6.5 3 Nordeste 5 Nordeste 0 -- -- 98
2018-01-13 03:00:00 7 0 Calma 4 Nordeste 0 -- -- 97
2018-01-13 02:00:00 6.6 4 Nordeste 5 Nordeste 0 -- -- 97
2018-01-13 01:00:00 6.5 2 Nordeste 5 Este 0 -- -- 96
2018-01-13 00:00:00 6.6 2 Nordeste 6 Este 0 -- -- 94
2018-01-12 23:00:00 7.1 5 Este 7 Este 0 -- -- 94
2018-01-12 22:00:00 7.8 3 Este 5 Nordeste 0 -- -- 92
2018-01-12 21:00:00 8.6 0 Calma 4 Este 0 -- -- 90
2018-01-12 20:00:00 9.2 0 Calma 4 Este 0 -- -- 88
2018-01-12 19:00:00 10.6 2 Nordeste 5 Este 0 -- -- 81
2018-01-12 18:00:00 12.1 4 Nordeste 10 Nordeste 0 -- -- 73
2018-01-12 17:00:00 13.1 5 Norte 16 Norte 0 -- -- 72
2018-01-12 16:00:00 12.6 4 Norte 10 Noroeste 0 -- -- 73
2018-01-12 15:00:00 12.6 5 Noroeste 13 Norte 0 -- -- 75
2018-01-12 14:00:00 11.9 6 Norte 13 Norte 0 -- -- 78
2018-01-12 13:00:00 11.3 7 Nordeste 15 Nordeste 0 -- -- 82
2018-01-12 12:00:00 9.4 5 Norte 12 Norte 0 -- -- 86
2018-01-12 11:00:00 9 6 Nordeste 13 Nordeste 0 -- -- 94
2018-01-12 10:00:00 6.4 3 Nordeste 6 Nordeste 0 -- -- 100
2018-01-12 09:00:00 5.6 2 Nordeste 4 Nordeste 0 -- -- 98
2018-01-12 08:00:00 6 3 Norte 7 Norte 0 -- -- 97
2018-01-12 07:00:00 5.5 4 Nordeste 8 Este 0 -- -- 95
2018-01-12 06:00:00 6.9 4 Este 11 Nordeste 0 -- -- 92
2018-01-12 05:00:00 8.6 4 Nordeste 9 Norte 0 -- -- 94
2018-01-12 04:00:00 9.3 3 Nordeste 10 Noroeste 0 -- -- 89
2018-01-12 03:00:00 11.2 5 Noroeste 17 Noroeste 0 -- -- 88
2018-01-12 02:00:00 12 11 Noroeste 20 Noroeste 0 -- -- 86
2018-01-12 01:00:00 12.4 10 Noroeste 21 Noroeste 0 -- -- 86
2018-01-12 00:00:00 12.5 9 Noroeste 19 Noroeste 0 -- -- 84
2018-01-11 23:00:00 13 12 Noroeste 24 Noroeste 0 -- -- 81
2018-01-11 22:00:00 13.1 10 Noroeste 18 Noroeste 0 -- -- 86
2018-01-11 21:00:00 13 9 Oeste 15 Noroeste 0 -- -- 86
2018-01-11 20:00:00 13.5 9 Oeste 19 Oeste 0 -- -- 87
2018-01-11 19:00:00 13.7 12 Oeste 19 Oeste 0 -- -- 85
2018-01-11 18:00:00 14.4 11 Oeste 22 Oeste 0 -- -- 82
2018-01-11 17:00:00 15 15 Oeste 27 Oeste 0 -- -- 75
2018-01-11 16:00:00 15.2 16 Oeste 24 Oeste 0 -- -- 73
2018-01-11 15:00:00 15 15 Oeste 25 Oeste 0 -- -- 74
2018-01-11 14:00:00 15 18 Oeste 27 Oeste 0 -- -- 76
2018-01-11 13:00:00 14.8 15 Noroeste 32 Oeste 0 -- -- 75
2018-01-11 12:00:00 14.3 17 Oeste 30 Oeste 0 -- -- 75
2018-01-11 11:00:00 13.6 14 Oeste 23 Oeste 0 -- -- 78
2018-01-11 10:00:00 12.1 9 Oeste 17 Oeste 0 -- -- 86
2018-01-11 09:00:00 6.9 0 Calma 3 Sudeste 0 -- -- 94
2018-01-11 08:00:00 8 2 Este 4 Noroeste 0 -- -- 90
2018-01-11 07:00:00 10.8 2 Noroeste 14 Noroeste 0 -- -- 85
2018-01-11 06:00:00 11.4 7 Noroeste 18 Noroeste 0 -- -- 83
2018-01-11 05:00:00 11.8 12 Noroeste 21 Oeste 0 -- -- 82
2018-01-11 04:00:00 12 11 Noroeste 24 Noroeste 0 -- -- 80
2018-01-11 03:00:00 12.3 16 Noroeste 29 Noroeste 0 -- -- 77
2018-01-11 02:00:00 12.5 15 Noroeste 23 Noroeste 0 -- -- 83
2018-01-11 01:00:00 13 16 Noroeste 27 Norte 0 -- -- 82
2018-01-11 00:00:00 13.5 16 Oeste 28 Oeste 0 -- -- 84
2018-01-10 23:00:00 13.8 17 Oeste 33 Noroeste 0 -- -- 85
2018-01-10 22:00:00 14.2 15 Oeste 27 Oeste 0 -- -- 85
2018-01-10 21:00:00 13.7 11 Oeste 34 Oeste 0.8 -- -- 93
2018-01-10 20:00:00 15.7 21 Sudoeste 33 Sudoeste 0 -- -- 89
2018-01-10 19:00:00 15.8 24 Sudoeste 37 Sudoeste 0 -- -- 88
2018-01-10 18:00:00 16 18 Sudoeste 29 Sudoeste 0 -- -- 87
2018-01-10 17:00:00 16.9 17 Sudoeste 31 Sudoeste 0 -- -- 85
2018-01-10 16:00:00 17 19 Sudoeste 28 Sudoeste 0 -- -- 86
2018-01-10 15:00:00 16.6 11 Oeste 21 Sudoeste 0 -- -- 89
2018-01-10 14:00:00 16.8 11 Sudoeste 19 Sudoeste 0 -- -- 88
2018-01-10 13:00:00 17 10 Sudoeste 16 Sudoeste 0 -- -- 85
2018-01-10 12:00:00 16.2 7 Sur 11 Sur 0 -- -- 88
2018-01-10 11:00:00 13.6 3 Sudeste 5 Este 0 -- -- 95
2018-01-10 10:00:00 11.1 3 Nordeste 5 Nordeste 0 -- -- 98
2018-01-10 09:00:00 10.9 2 Norte 9 Noroeste 0 -- -- 96
2018-01-10 08:00:00 12.1 7 Noroeste 14 Noroeste 0 -- -- 96
2018-01-10 07:00:00 12.6 9 Noroeste 22 Noroeste 0 -- -- 94
2018-01-10 06:00:00 12.8 13 Noroeste 25 Oeste 0 -- -- 92
2018-01-10 05:00:00 13 17 Noroeste 28 Oeste 0 -- -- 90
2018-01-10 04:00:00 13.4 16 Oeste 32 Oeste 0 -- -- 90
2018-01-10 03:00:00 14.2 15 Oeste 24 Oeste 0 -- -- 90
2018-01-10 02:00:00 14.2 15 Oeste 30 Oeste 0 -- -- 91
2018-01-10 01:00:00 14.3 15 Oeste 26 Oeste 0.2 -- -- 98
2018-01-10 00:00:00 14.6 10 Sudoeste 43 Sur 3.8 -- -- 99
2018-01-09 23:00:00 14.6 27 Sur 48 Sudeste 0 -- -- 97
2018-01-09 22:00:00 14.6 26 Sur 48 Sur 0 -- -- 98
2018-01-09 21:00:00 14.5 27 Sur 42 Sudeste 0 -- -- 97
2018-01-09 20:00:00 13.5 27 Sudeste 49 Sudeste 0.2 -- -- 96
2018-01-09 19:00:00 13.1 23 Sur 45 Sur 0.4 -- -- 98
2018-01-09 18:00:00 12.8 20 Sur 43 Sudoeste 2 -- -- 97
2018-01-09 17:00:00 13.8 20 Sur 52 Sur 2.6 -- -- 97
2018-01-09 16:00:00 13.7 20 Sudeste 33 Sur 1.2 -- -- 97
2018-01-09 15:00:00 13.6 19 Sudeste 34 Sudeste 2 -- -- 96
2018-01-09 14:00:00 13.5 12 Sur 25 Sur 1 -- -- 93
2018-01-09 13:00:00 13.1 14 Sur 24 Sur 0.4 -- -- 92
2018-01-09 12:00:00 10 8 Sudeste 15 Sudeste 0 -- -- 91
2018-01-09 11:00:00 8.5 7 Sudeste 13 Sudeste 0 -- -- 92
2018-01-09 10:00:00 7.1 6 Sudeste 18 Este 0 -- -- 91
2018-01-09 09:00:00 6.1 8 Este 14 Sudeste 0 -- -- 93
2018-01-09 08:00:00 5.5 6 Este 11 Este 0 -- -- 95
2018-01-09 07:00:00 5.2 7 Este 14 Este 0 -- -- 97
2018-01-09 06:00:00 4.5 6 Este 12 Este 0 -- -- 98
2018-01-09 05:00:00 4.4 6 Este 9 Este 0 -- -- 98
2018-01-09 04:00:00 3.8 4 Sudeste 6 Este 0 -- -- 97
2018-01-09 03:00:00 3.9 3 Sudeste 6 Sudeste 0 -- -- 96
2018-01-09 02:00:00 4.2 2 Sudeste 6 Este 0 -- -- 95
2018-01-09 01:00:00 4.6 4 Sudeste 6 Este 0 -- -- 95
2018-01-09 00:00:00 5.3 3 Este 8 Este 0 -- -- 95
2018-01-08 23:00:00 5.4 2 Sudoeste 5 Sudoeste 0 -- -- 94
2018-01-08 22:00:00 6.7 0 Calma 4 Nordeste 0 -- -- 92
2018-01-08 21:00:00 7.4 0 Calma 4 Este 0 -- -- 91
2018-01-08 20:00:00 8 0 Calma 4 Norte 0 -- -- 89
2018-01-08 19:00:00 8.7 4 Nordeste 10 Norte 0 -- -- 84
2018-01-08 18:00:00 10.5 6 Norte 20 Nordeste 0 -- -- 77
2018-01-08 17:00:00 11 10 Nordeste 24 Nordeste 0 -- -- 75
2018-01-08 16:00:00 10.8 10 Norte 24 Norte 0 -- -- 77
2018-01-08 15:00:00 10.1 12 Norte 35 Nordeste 0 -- -- 83
2018-01-08 14:00:00 9.5 13 Norte 38 Norte 0 -- -- 84
2018-01-08 13:00:00 8.3 13 Norte 26 Noroeste 0 -- -- 91
2018-01-08 12:00:00 7.9 10 Norte 22 Norte 0.2 -- -- 93
2018-01-08 11:00:00 7.5 9 Norte 23 Norte 0 -- -- 90
2018-01-08 10:00:00 7.7 8 Norte 20 Norte 0 -- -- 88
2018-01-08 09:00:00 7.4 5 Norte 19 Norte 0 -- -- 94
2018-01-08 08:00:00 7.6 8 Norte 24 Noroeste 0 -- -- 89
2018-01-08 07:00:00 8.8 15 Noroeste 35 Noroeste 0 -- -- 85
2018-01-08 06:00:00 10.5 18 Oeste 30 Oeste 0 -- -- 79
2018-01-08 05:00:00 8.7 0 Calma 12 Sudeste 0.2 -- -- 93
2018-01-08 04:00:00 8 9 Sudeste 19 Sudeste 0 -- -- 93
2018-01-08 03:00:00 7.3 11 Sudeste 20 Sudeste 0 -- -- 91
2018-01-08 02:00:00 7 12 Sudeste 22 Este 0 -- -- 87
2018-01-08 01:00:00 6 10 Sudeste 17 Sudeste 0 -- -- 89
2018-01-08 00:00:00 5.3 4 Sudeste 6 Sudeste 0 -- -- 87
2018-01-07 23:00:00 6.7 4 Sudeste 5 Sudeste 0 -- -- 81
2018-01-07 22:00:00 8.1 3 Este 10 Noroeste 0 -- -- 77
2018-01-07 21:00:00 10 5 Noroeste 14 Oeste 0 -- -- 66
2018-01-07 20:00:00 9.9 7 Noroeste 13 Noroeste 0 -- -- 64
2018-01-07 19:00:00 10.1 7 Oeste 16 Oeste 0 -- -- 70
2018-01-07 18:00:00 10.4 10 Oeste 20 Sudoeste 0 -- -- 69
2018-01-07 17:00:00 10.4 11 Oeste 19 Oeste 0 -- -- 69
2018-01-07 16:00:00 10.9 14 Oeste 21 Sudoeste 0 -- -- 70
2018-01-07 15:00:00 10.7 12 Oeste 18 Oeste 0 -- -- 72
2018-01-07 14:00:00 10.7 9 Oeste 15 Oeste 0 -- -- 71
2018-01-07 13:00:00 10.8 7 Sudoeste 15 Sudoeste 0 -- -- 70
2018-01-07 12:00:00 10.1 6 Oeste 16 Noroeste 0 -- -- 72
2018-01-07 11:00:00 9.5 7 Noroeste 21 Noroeste 0 -- -- 73
2018-01-07 10:00:00 8.7 10 Noroeste 23 Oeste 0 -- -- 75
2018-01-07 09:00:00 8.3 13 Noroeste 30 Oeste 0 -- -- 75
2018-01-07 08:00:00 8.2 15 Oeste 31 Noroeste 0 -- -- 76
2018-01-07 07:00:00 8.3 22 Oeste 33 Oeste 0 -- -- 79
2018-01-07 06:00:00 8.2 18 Oeste 26 Oeste 0 -- -- 79
2018-01-07 05:00:00 8.4 15 Noroeste 28 Oeste 0 -- -- 77
2018-01-07 04:00:00 8.7 17 Noroeste 33 Noroeste 0 -- -- 75
2018-01-07 03:00:00 9 18 Noroeste 36 Noroeste 0 -- -- 74
2018-01-07 02:00:00 9.3 22 Noroeste 38 Noroeste 0 -- -- 71
2018-01-07 01:00:00 9.7 19 Noroeste 30 Noroeste 0 -- -- 66
2018-01-07 00:00:00 10.1 17 Noroeste 33 Oeste 0 -- -- 64
2018-01-06 23:00:00 10.6 19 Noroeste 33 Oeste 0 -- -- 60
2018-01-06 22:00:00 10.9 19 Noroeste 35 Noroeste 0 -- -- 59
2018-01-06 21:00:00 11.4 22 Noroeste 38 Noroeste 0 -- -- 57
2018-01-06 20:00:00 11.6 22 Noroeste 34 Noroeste 0 -- -- 55
2018-01-06 19:00:00 11.9 23 Oeste 38 Oeste 0 -- -- 48
2018-01-06 18:00:00 12.1 23 Oeste 35 Oeste 0 -- -- 52
2018-01-06 17:00:00 12.2 23 Oeste 41 Oeste 0 -- -- 53
2018-01-06 16:00:00 12.8 23 Oeste 39 Oeste 0 -- -- 55
2018-01-06 15:00:00 12.6 26 Oeste 37 Oeste 0 -- -- 61
2018-01-06 14:00:00 12.3 22 Oeste 39 Oeste 0 -- -- 64
2018-01-06 13:00:00 11.9 22 Noroeste 37 Noroeste 0 -- -- 67
2018-01-06 12:00:00 11.2 21 Noroeste 37 Noroeste 0 -- -- 74
2018-01-06 11:00:00 10.5 21 Noroeste 41 Noroeste 0 -- -- 80
2018-01-06 10:00:00 10 15 Noroeste 31 Noroeste 0 -- -- 82
2018-01-06 09:00:00 9 10 Noroeste 23 Noroeste 0 -- -- 96
2018-01-06 08:00:00 8.6 4 Norte 22 Norte 0 -- -- 95
2018-01-06 07:00:00 8.7 11 Norte 28 Norte 0 -- -- 95
2018-01-06 06:00:00 8.8 14 Norte 31 Norte 0.6 -- -- 94
2018-01-06 05:00:00 9.1 16 Norte 32 Noroeste 1.4 -- -- 94
2018-01-06 04:00:00 9.8 16 Norte 30 Noroeste 3.8 -- -- 95
2018-01-06 03:00:00 10.9 4 Noroeste 15 Oeste 3.8 -- -- 96
2018-01-06 02:00:00 11.6 8 Oeste 28 Sudoeste 1.6 -- -- 96
2018-01-06 01:00:00 10.9 20 Sudoeste 67 Oeste 1.6 -- -- 94
2018-01-06 00:00:00 14.1 13 Sur 26 Sudoeste 0.2 -- -- 89
2018-01-05 23:00:00 14.5 7 Sudoeste 24 Sudoeste 0 -- -- 83
2018-01-05 22:00:00 14.8 15 Sudoeste 42 Sudoeste 0 -- -- 84
2018-01-05 21:00:00 15.8 23 Sur 46 Sur 0 -- -- 87
2018-01-05 20:00:00 16.1 24 Sur 43 Sur 0 -- -- 80
2018-01-05 19:00:00 15.9 22 Sur 43 Sur 0 -- -- 83
2018-01-05 18:00:00 15.7 20 Sur 37 Sudoeste 0 -- -- 83
2018-01-05 17:00:00 16.1 18 Sur 37 Sur 0 -- -- 81
2018-01-05 16:00:00 16.4 16 Sur 34 Sudoeste 0 -- -- 77
2018-01-05 15:00:00 16.8 17 Sur 39 Sur 0 -- -- 73
2018-01-05 14:00:00 17.4 19 Sur 37 Sur 0 -- -- 74
2018-01-05 13:00:00 16.7 18 Sudoeste 31 Sur 0 -- -- 77
2018-01-05 12:00:00 16.4 14 Sur 29 Sur 0 -- -- 80
2018-01-05 11:00:00 15.7 17 Sur 26 Sur 0 -- -- 82
2018-01-05 10:00:00 13.9 4 Sur 6 Sur 0 -- -- 94
2018-01-05 09:00:00 13.5 0 Calma 9 Sudeste 0 -- -- 95
2018-01-05 08:00:00 13.7 3 Sur 6 Este 0 -- -- 95
2018-01-05 07:00:00 14.1 2 Sudoeste 12 Noroeste 0 -- -- 92
2018-01-05 06:00:00 14.5 9 Oeste 14 Oeste 0 -- -- 91
2018-01-05 05:00:00 14.4 6 Oeste 13 Oeste 0 -- -- 93
2018-01-05 04:00:00 14.4 6 Oeste 10 Sudoeste 0 -- -- 97
2018-01-05 03:00:00 14 3 Sudoeste 5 Sudoeste 0 -- -- 97
2018-01-05 02:00:00 13.9 5 Sudoeste 9 Sudoeste 0 -- -- 98
2018-01-05 01:00:00 13.7 5 Sur 7 Sur 0 -- -- 98
2018-01-05 00:00:00 13.7 3 Sudeste 5 Sudeste 0 -- -- 98
2018-01-04 23:00:00 13.6 3 Sur 5 Sur 0 -- -- 97
2018-01-04 22:00:00 13.7 3 Sur 4 Sudeste 0 -- -- 96
2018-01-04 21:00:00 14 2 Sur 6 Noroeste 0 -- -- 95
2018-01-04 20:00:00 14.4 5 Norte 18 Noroeste 0 -- -- 93
2018-01-04 19:00:00 14.6 6 Oeste 13 Oeste 0 -- -- 92
2018-01-04 18:00:00 14.8 4 Oeste 6 Oeste 0 -- -- 92
2018-01-04 17:00:00 15.1 4 Noroeste 11 Norte 0 -- -- 90
2018-01-04 16:00:00 14.9 6 Noroeste 15 Noroeste 0 -- -- 93
2018-01-04 15:00:00 14.9 8 Noroeste 13 Oeste 0 -- -- 94
2018-01-04 14:00:00 15.4 5 Oeste 9 Oeste 0 -- -- 90
2018-01-04 13:00:00 15.5 3 Noroeste 8 Oeste 0 -- -- 90
2018-01-04 12:00:00 15.2 4 Oeste 9 Oeste 0 -- -- 93
2018-01-04 11:00:00 14.8 5 Oeste 10 Oeste 0 -- -- 96
2018-01-04 10:00:00 13 0 Calma 8 Noroeste 0 -- -- 97
2018-01-04 09:00:00 11.3 3 Norte 8 Noroeste 0 -- -- 97
2018-01-04 08:00:00 11.8 6 Norte 10 Norte 0 -- -- 97
2018-01-04 07:00:00 11.5 5 Norte 12 Norte 0 -- -- 97
2018-01-04 06:00:00 11.5 5 Norte 13 Norte 0 -- -- 97
2018-01-04 05:00:00 11.1 4 Norte 11 Norte 0 -- -- 96
2018-01-04 04:00:00 11.3 4 Norte 12 Nordeste 0 -- -- 95
2018-01-04 03:00:00 11.7 8 Norte 14 Norte 0 -- -- 95
2018-01-04 02:00:00 12 7 Norte 15 Norte 0 -- -- 94
2018-01-04 01:00:00 11.9 5 Norte 13 Norte 0 -- -- 95
2018-01-04 00:00:00 12.1 5 Norte 9 Norte 0 -- -- 95
2018-01-03 23:00:00 12 4 Norte 6 Norte 0 -- -- 95
2018-01-03 22:00:00 12.7 3 Nordeste 6 Noroeste 0 -- -- 94
2018-01-03 21:00:00 14 2 Norte 6 Noroeste 0 -- -- 94
2018-01-03 20:00:00 14.6 3 Noroeste 11 Noroeste 0 -- -- 92
2018-01-03 19:00:00 15.1 6 Noroeste 11 Oeste 0 -- -- 87
2018-01-03 18:00:00 17.1 4 Norte 15 Norte 0 -- -- 76
2018-01-03 17:00:00 17.9 7 Norte 18 Nordeste 0 -- -- 72
2018-01-03 16:00:00 18.2 9 Norte 21 Norte 0 -- -- 70
2018-01-03 15:00:00 17.7 10 Norte 33 Norte 0 -- -- 73
2018-01-03 14:00:00 17.6 11 Norte 32 Nordeste 0 -- -- 72
2018-01-03 13:00:00 17.2 12 Norte 30 Norte 0 -- -- 73
2018-01-03 12:00:00 16.2 10 Norte 23 Norte 0 -- -- 78
2018-01-03 11:00:00 14.4 9 Norte 18 Nordeste 0 -- -- 83
2018-01-03 10:00:00 12.5 8 Norte 18 Norte 0 -- -- 92
2018-01-03 09:00:00 10.5 4 Norte 16 Norte 0 -- -- 95
2018-01-03 08:00:00 10.3 5 Norte 14 Norte 0 -- -- 95
2018-01-03 07:00:00 10.2 6 Norte 15 Noroeste 0 -- -- 94
2018-01-03 06:00:00 10.2 6 Norte 14 Norte 0 -- -- 92
2018-01-03 05:00:00 10.3 6 Norte 12 Norte 0 -- -- 92
2018-01-03 04:00:00 10.7 6 Norte 15 Norte 0 -- -- 92
2018-01-03 03:00:00 10.5 7 Norte 13 Norte 0 -- -- 94
2018-01-03 02:00:00 10.1 5 Norte 13 Nordeste 0 -- -- 94
2018-01-03 01:00:00 10.4 4 Norte 10 Norte 0 -- -- 96
2018-01-03 00:00:00 9.5 3 Norte 5 Norte 0 -- -- 95
2018-01-02 23:00:00 9.5 0 Calma 5 Este 0 -- -- 93
2018-01-02 22:00:00 9.9 4 Este 6 Nordeste 0 -- -- 93
2018-01-02 21:00:00 10.7 0 Calma 4 Norte 0 -- -- 91
2018-01-02 20:00:00 11.8 2 Norte 4 Nordeste 0 -- -- 90
2018-01-02 19:00:00 13.2 0 Calma 6 Noroeste 0 -- -- 83
2018-01-02 18:00:00 14.8 4 Noroeste 16 Noroeste 0 -- -- 79
2018-01-02 17:00:00 15.1 11 Noroeste 18 Noroeste 0 -- -- 77
2018-01-02 16:00:00 16.5 8 Norte 18 Nordeste 0 -- -- 66
2018-01-02 15:00:00 16.1 9 Norte 20 Norte 0 -- -- 67
2018-01-02 14:00:00 15.2 8 Norte 16 Norte 0 -- -- 69
2018-01-02 13:00:00 14.1 7 Norte 14 Norte 0 -- -- 74
2018-01-02 12:00:00 12.9 9 Nordeste 17 Nordeste 0 -- -- 77
2018-01-02 11:00:00 10.6 9 Nordeste 16 Nordeste 0 -- -- 84
2018-01-02 10:00:00 8.2 5 Norte 12 Nordeste 0 -- -- 94
2018-01-02 09:00:00 6.5 3 Norte 8 Norte 0 -- -- 96
2018-01-02 08:00:00 6.2 2 Norte 6 Norte 0 -- -- 95
2018-01-02 07:00:00 6.6 3 Norte 5 Norte 0 -- -- 94
2018-01-02 06:00:00 6.7 3 Norte 5 Norte 0 -- -- 92
2018-01-02 05:00:00 7.5 4 Norte 12 Nordeste 0 -- -- 89
2018-01-02 04:00:00 7.8 5 Nordeste 11 Nordeste 0 -- -- 88
2018-01-02 03:00:00 8.7 5 Nordeste 13 Norte 0 -- -- 82
2018-01-02 02:00:00 8.3 4 Norte 13 Norte 0 -- -- 85
2018-01-02 01:00:00 9.1 4 Norte 10 Norte 0 -- -- 89
2018-01-02 00:00:00 9.4 2 Norte 10 Norte 0 -- -- 82
2018-01-01 23:00:00 10.6 4 Norte 15 Norte 0 -- -- 72
2018-01-01 22:00:00 11.5 7 Norte 15 Norte 0 -- -- 70
2018-01-01 21:00:00 13 6 Norte 14 Norte 0 -- -- 69
2018-01-01 20:00:00 13.4 4 Noroeste 10 Oeste 0 -- -- 86
2018-01-01 19:00:00 13.6 3 Noroeste 11 Oeste 0 -- -- 78
2018-01-01 18:00:00 15 6 Noroeste 15 Noroeste 0 -- -- 72
2018-01-01 17:00:00 15.8 9 Noroeste 15 Oeste 0 -- -- 70
2018-01-01 16:00:00 16.5 8 Nordeste 14 Nordeste 0 -- -- 53
2018-01-01 15:00:00 16.2 7 Norte 19 Nordeste 0 -- -- 58
2018-01-01 14:00:00 16.3 10 Norte 22 Norte 0 -- -- 61
2018-01-01 13:00:00 15.1 10 Norte 20 Noroeste 0 -- -- 73
2018-01-01 12:00:00 13.2 9 Norte 22 Norte 0 -- -- 78
2018-01-01 11:00:00 11.1 8 Norte 16 Norte 0 -- -- 87
2018-01-01 10:00:00 9.4 8 Norte 17 Norte 0 -- -- 92
2018-01-01 09:00:00 8.9 4 Norte 14 Norte 0 -- -- 93
2018-01-01 08:00:00 10 7 Norte 15 Noroeste 0 -- -- 94
2018-01-01 07:00:00 8.7 3 Noroeste 8 Norte 0 -- -- 99
2018-01-01 06:00:00 8.4 3 Noroeste 6 Noroeste 0 -- -- 98
2018-01-01 05:00:00 8.1 4 Sur 7 Sur 0 -- -- 97
2018-01-01 04:00:00 9.9 4 Nordeste 6 Norte 0 -- -- 96
2018-01-01 03:00:00 10.9 2 Norte 9 Este 0 -- -- 95
2018-01-01 02:00:00 13.2 3 Norte 15 Noroeste 0 -- -- 94
2018-01-01 01:00:00 14.2 10 Noroeste 22 Noroeste 0 -- -- 92
2018-01-01 00:00:00 13.8 4 Noroeste 17 Noroeste 0 -- -- 89
2017-12-31 23:00:00 14.6 9 Noroeste 28 Noroeste 0 -- -- 88
2017-12-31 22:00:00 15.2 16 Noroeste 26 Oeste 0 -- -- 89
2017-12-31 21:00:00 16 17 Oeste 29 Oeste 0 -- -- 88
2017-12-31 20:00:00 16.3 12 Oeste 24 Sudoeste 0 -- -- 87
2017-12-31 19:00:00 16.6 15 Sudoeste 23 Oeste 0 -- -- 90
2017-12-31 18:00:00 17 12 Sudoeste 23 Sudoeste 0 -- -- 88
2017-12-31 17:00:00 17.3 15 Sudoeste 24 Oeste 0 -- -- 87
2017-12-31 16:00:00 17.6 12 Sudoeste 22 Sudoeste 0 -- -- 84
2017-12-31 15:00:00 17.3 11 Sudoeste 20 Sudoeste 0 -- -- 83
2017-12-31 14:00:00 17.1 12 Sudoeste 21 Sudoeste 0 -- -- 82
2017-12-31 13:00:00 16.9 10 Sudoeste 17 Sudoeste 0 -- -- 85
2017-12-31 12:00:00 15.8 6 Sur 10 Sur 0 -- -- 97
2017-12-31 11:00:00 14.7 4 Sudeste 5 Sudeste 0 -- -- 99
2017-12-31 10:00:00 14.1 3 Oeste 12 Oeste 0 -- -- 100
2017-12-31 09:00:00 13.4 4 Oeste 6 Oeste 0 -- -- 100
2017-12-31 08:00:00 13.2 4 Sudoeste 7 Sudoeste 0 -- -- 100
2017-12-31 07:00:00 12.8 4 Sur 10 Sudeste 0 -- -- 100
2017-12-31 06:00:00 12 3 Sudeste 8 Sudeste 0 -- -- 100
2017-12-31 05:00:00 12.1 5 Sudeste 8 Sudeste 0 -- -- 100
2017-12-31 04:00:00 12.4 4 Sudeste 9 Sudeste 0 -- -- 100
2017-12-31 03:00:00 11.9 4 Sudeste 8 Sudeste 0 -- -- 99
2017-12-31 02:00:00 10.8 3 Sudeste 4 Sudeste 0 -- -- 96
2017-12-31 01:00:00 11.2 3 Este 5 Este 0 -- -- 96